San Francisco, California
Current Conditions -  °F | °C
As of 8:56 PM on Friday 19 Dec 2014 (Local Time) from KSFO Reporting Station
Haze Haze  
Wind Chill: 57°   Ceiling: 1000
Heat Index: 57°   Visibility: 6mi
Dew Point: 57°   Wind: 3mph
Humidity: 100%   Direction: 140°SE
Pressure: 30.13"   Gusts: NA
Location:  37.78°N, 122.42°W
Report Text: KSFO 200456Z 14003KT 6SM BR SCT004 BKN010 OVC019 14/14 A3013 RMK AO2 SLP203 T01390139
Loading
Personal Weather Stations






























Interactive Weather Map New forecast layout! Learn more

10-Day Weather Forecast

Advertisements
Track Severe Weather on mobile